Time;durP1;ratioP1;P1;durP2;ratioP2;P2;SDS_P1;SDS_P2;PMS_P1;PMS_P2;Temp;Humidity;BMP_temperature;BMP_pressure;BME280_temperature;BME280_humidity;BME280_pressure;Samples;Min_cycle;Max_cycle;Signal;HPM_P1;HPM_P2
2023/09/04 00:00:45;;;;;;;0.13;0.13;;;15.30;99.90;;;;;;5046171;28;20045;-82
2023/09/04 00:03:10;;;;;;;0.20;0.20;;;15.30;99.90;;;;;;5047645;28;20380;-82
2023/09/04 00:05:36;;;;;;;0.20;0.20;;;15.30;99.90;;;;;;5019860;28;20049;-81
2023/09/04 00:08:02;;;;;;;0.20;0.20;;;15.30;99.90;;;;;;5028817;28;20492;-81
2023/09/04 00:10:28;;;;;;;0.20;0.20;;;15.20;99.90;;;;;;5029305;28;20758;-81
2023/09/04 00:12:54;;;;;;;0.17;0.17;;;15.20;99.90;;;;;;5029881;28;20049;-81
2023/09/04 00:15:20;;;;;;;0.13;0.13;;;15.20;99.90;;;;;;5029997;28;20048;-82
2023/09/04 00:17:50;;;;;;;0.20;0.20;;;15.20;99.90;;;;;;5031774;28;20559;-81
2023/09/04 00:20:16;;;;;;;0.20;0.20;;;15.10;99.90;;;;;;5030139;28;20124;-81
2023/09/04 00:22:42;;;;;;;0.20;0.20;;;15.10;99.90;;;;;;5028804;28;20516;-81
2023/09/04 00:25:09;;;;;;;0.17;0.17;;;15.10;99.90;;;;;;5039965;28;20041;-81
2023/09/04 00:27:35;;;;;;;0.20;0.20;;;15.00;99.90;;;;;;5026482;28;20049;-81
2023/09/04 00:30:00;;;;;;;0.10;0.10;;;15.00;99.90;;;;;;5028792;28;20041;-81
2023/09/04 00:32:26;;;;;;;0.10;0.10;;;15.00;99.90;;;;;;5028874;28;20044;-81
2023/09/04 00:34:52;;;;;;;0.20;0.20;;;15.00;99.90;;;;;;5027104;28;20508;-82
2023/09/04 00:37:17;;;;;;;0.10;0.10;;;14.90;99.90;;;;;;5045212;28;20041;-82
2023/09/04 00:39:44;;;;;;;0.10;0.10;;;14.90;99.90;;;;;;5030275;28;20094;-82
2023/09/04 00:42:10;;;;;;;0.20;0.20;;;14.90;99.90;;;;;;5046638;28;21782;-81
2023/09/04 00:44:36;;;;;;;0.20;0.20;;;14.90;99.90;;;;;;5048461;28;20116;-82
2023/09/04 00:47:02;;;;;;;0.20;0.20;;;14.90;99.90;;;;;;5047569;28;20040;-82
2023/09/04 00:49:29;;;;;;;0.20;0.20;;;14.80;99.90;;;;;;5047836;28;20127;-82
2023/09/04 00:51:56;;;;;;;0.10;0.10;;;14.80;99.90;;;;;;5026015;28;20094;-81
2023/09/04 00:54:23;;;;;;;0.20;0.20;;;14.80;99.90;;;;;;5046414;28;20110;-83
2023/09/04 00:56:51;;;;;;;0.20;0.20;;;14.80;99.90;;;;;;5019819;28;20119;-81
2023/09/04 00:59:18;;;;;;;0.10;0.10;;;14.80;99.90;;;;;;5047628;28;20388;-82
2023/09/04 01:01:44;;;;;;;0.10;0.10;;;14.80;99.90;;;;;;5022101;28;20076;-82
2023/09/04 01:04:09;;;;;;;0.20;0.20;;;14.80;99.90;;;;;;5030535;28;20120;-81
2023/09/04 01:06:35;;;;;;;0.10;0.10;;;14.80;99.90;;;;;;5024305;28;20037;-82
2023/09/04 01:09:01;;;;;;;0.10;0.10;;;14.70;99.90;;;;;;5024522;28;20044;-81
2023/09/04 01:11:36;;;;;;;0.13;0.13;;;14.70;99.90;;;;;;5043607;28;20040;-81
2023/09/04 01:14:10;;;;;;;0.13;0.13;;;14.70;99.90;;;;;;5024904;28;20087;-82
2023/09/04 01:16:38;;;;;;;0.17;0.17;;;14.70;99.90;;;;;;5040705;28;20099;-82
2023/09/04 01:19:06;;;;;;;0.10;0.10;;;14.70;99.90;;;;;;5047950;28;20048;-82
2023/09/04 01:21:35;;;;;;;0.20;0.20;;;14.70;99.90;;;;;;5024690;28;20503;-82
2023/09/04 01:24:02;;;;;;;0.10;0.10;;;14.70;99.90;;;;;;5046204;28;20045;-81
2023/09/04 01:26:36;;;;;;;0.20;0.20;;;14.70;99.90;;;;;;5029216;28;20052;-81
2023/09/04 01:29:19;;;;;;;0.20;0.20;;;14.70;99.90;;;;;;5020196;28;20049;-82
2023/09/04 01:32:15;;;;;;;0.13;0.13;;;14.60;99.90;;;;;;5048804;28;20045;-82
2023/09/04 01:34:44;;;;;;;0.10;0.10;;;14.70;99.90;;;;;;5031441;28;20092;-82
2023/09/04 01:37:12;;;;;;;0.20;0.20;;;14.60;99.90;;;;;;5025682;28;20037;-81
2023/09/04 01:39:39;;;;;;;0.10;0.10;;;14.60;99.90;;;;;;5024358;28;20070;-81
2023/09/04 01:42:05;;;;;;;0.20;0.20;;;14.60;99.90;;;;;;5028397;28;20045;-81
2023/09/04 01:44:31;;;;;;;0.17;0.17;;;14.50;99.90;;;;;;5032328;28;20051;-81
2023/09/04 01:46:56;;;;;;;0.13;0.13;;;14.60;99.90;;;;;;5032958;28;20064;-82
2023/09/04 01:49:22;;;;;;;0.20;0.20;;;14.60;99.90;;;;;;5035549;28;20069;-82
2023/09/04 01:51:48;;;;;;;0.20;0.20;;;14.50;99.90;;;;;;5027593;28;20045;-82
2023/09/04 01:54:13;;;;;;;0.20;0.20;;;14.50;99.90;;;;;;5034654;28;20052;-81
2023/09/04 01:56:39;;;;;;;0.20;0.20;;;14.50;99.90;;;;;;5032348;28;20132;-82
2023/09/04 01:59:05;;;;;;;0.20;0.20;;;14.60;99.90;;;;;;5048340;28;20073;-82
2023/09/04 02:01:31;;;;;;;0.20;0.20;;;14.60;99.90;;;;;;5049292;28;20338;-82
2023/09/04 02:03:58;;;;;;;0.10;0.10;;;14.50;99.90;;;;;;5029048;28;20051;-83
2023/09/04 02:06:25;;;;;;;0.20;0.20;;;14.50;99.90;;;;;;5030624;28;20103;-83
2023/09/04 02:08:50;;;;;;;0.20;0.20;;;14.50;99.90;;;;;;5030760;28;20053;-81
2023/09/04 02:11:16;;;;;;;0.10;0.10;;;14.50;99.90;;;;;;5030313;28;20371;-81
2023/09/04 02:13:45;;;;;;;0.20;0.20;;;14.40;99.90;;;;;;5032215;28;20124;-81
2023/09/04 02:16:11;;;;;;;0.20;0.20;;;14.50;99.90;;;;;;5029722;28;20708;-81
2023/09/04 02:18:38;;;;;;;0.10;0.10;;;14.50;99.90;;;;;;5027696;28;20041;-81
2023/09/04 02:21:04;;;;;;;0.10;0.10;;;14.50;99.90;;;;;;5021171;28;20053;-81
2023/09/04 02:23:29;;;;;;;0.20;0.20;;;14.40;99.90;;;;;;5018763;28;20042;-81
2023/09/04 02:25:55;;;;;;;0.10;0.10;;;14.40;99.90;;;;;;5023168;28;20030;-82
2023/09/04 02:28:21;;;;;;;0.10;0.10;;;14.50;99.90;;;;;;5019648;28;20064;-84
2023/09/04 02:30:46;;;;;;;0.15;0.15;;;14.40;99.90;;;;;;5030725;28;20040;-82
2023/09/04 02:33:12;;;;;;;0.10;0.10;;;14.40;99.90;;;;;;5029739;28;20055;-82
2023/09/04 02:35:38;;;;;;;0.10;0.10;;;14.40;99.90;;;;;;5016856;28;20137;-82
2023/09/04 02:38:04;;;;;;;0.20;0.20;;;14.40;99.90;;;;;;5019397;28;20116;-82
2023/09/04 02:40:29;;;;;;;0.10;0.10;;;14.40;99.90;;;;;;5024359;28;20041;-82
2023/09/04 02:42:55;;;;;;;0.20;0.20;;;14.40;99.90;;;;;;5029496;28;20046;-82
2023/09/04 02:45:21;;;;;;;0.20;0.20;;;14.40;99.90;;;;;;5031545;28;20058;-81
2023/09/04 02:47:47;;;;;;;0.20;0.20;;;14.40;99.90;;;;;;5028825;28;20045;-81
2023/09/04 02:50:13;;;;;;;0.10;0.10;;;14.40;99.90;;;;;;5031776;28;20044;-82
2023/09/04 02:52:38;;;;;;;0.20;0.20;;;14.40;99.90;;;;;;5026598;28;20417;-82
2023/09/04 02:55:05;;;;;;;0.20;0.20;;;14.40;99.90;;;;;;5010143;28;20405;-81
2023/09/04 02:57:31;;;;;;;0.20;0.20;;;14.40;99.90;;;;;;5028853;28;20063;-82
2023/09/04 03:00:03;;;;;;;0.10;0.10;;;14.40;99.90;;;;;;5029647;28;20077;-81
2023/09/04 03:02:29;;;;;;;0.10;0.10;;;14.40;99.90;;;;;;5028395;28;20045;-81
2023/09/04 03:04:55;;;;;;;0.10;0.10;;;14.40;99.90;;;;;;5027208;28;20053;-81
2023/09/04 03:07:22;;;;;;;0.17;0.17;;;14.40;99.90;;;;;;5026685;28;20081;-81
2023/09/04 03:09:52;;;;;;;0.20;0.20;;;14.40;99.90;;;;;;5031096;28;20037;-82
2023/09/04 03:12:18;;;;;;;0.15;0.15;;;14.40;99.90;;;;;;5029344;28;20453;-83
2023/09/04 03:14:44;;;;;;;0.20;0.20;;;14.40;99.90;;;;;;5030898;28;20128;-82
2023/09/04 03:17:09;;;;;;;0.20;0.20;;;14.40;99.90;;;;;;5030350;28;20037;-82
2023/09/04 03:19:35;;;;;;;0.10;0.10;;;14.40;99.90;;;;;;5029954;28;20115;-82
2023/09/04 03:22:01;;;;;;;0.20;0.20;;;14.40;99.90;;;;;;5028303;28;20091;-82
2023/09/04 03:24:27;;;;;;;0.20;0.20;;;14.30;99.90;;;;;;5013092;28;20037;-82
2023/09/04 03:26:52;;;;;;;0.17;0.17;;;14.30;99.90;;;;;;5024366;28;20083;-82
2023/09/04 03:29:18;;;;;;;0.10;0.10;;;14.30;99.90;;;;;;5026333;28;20046;-82
2023/09/04 03:31:43;;;;;;;0.10;0.10;;;14.30;99.90;;;;;;5029030;28;20052;-82
2023/09/04 03:34:09;;;;;;;0.20;0.20;;;14.20;99.90;;;;;;5028002;28;20042;-82
2023/09/04 03:36:35;;;;;;;0.20;0.20;;;14.20;99.90;;;;;;5017636;28;20056;-83
2023/09/04 03:39:02;;;;;;;0.13;0.13;;;14.30;99.90;;;;;;5015307;28;20181;-82
2023/09/04 03:41:28;;;;;;;0.20;0.20;;;14.20;99.90;;;;;;5021133;28;20091;-82
2023/09/04 03:43:55;;;;;;;0.15;0.15;;;14.10;99.90;;;;;;5029453;28;20444;-82
2023/09/04 03:46:20;;;;;;;0.20;0.20;;;14.20;99.90;;;;;;5027697;28;20049;-82
2023/09/04 03:48:46;;;;;;;0.20;0.20;;;14.20;99.90;;;;;;5029691;28;20053;-82
2023/09/04 03:51:12;;;;;;;0.10;0.10;;;14.20;99.90;;;;;;5016111;28;20133;-82
2023/09/04 03:53:37;;;;;;;0.10;0.10;;;14.20;99.90;;;;;;5025939;28;20045;-82
2023/09/04 03:56:04;;;;;;;0.10;0.10;;;14.20;99.90;;;;;;5027420;28;20045;-82
2023/09/04 03:58:31;;;;;;;0.10;0.10;;;14.10;99.90;;;;;;5028477;28;20037;-82
2023/09/04 04:00:57;;;;;;;0.10;0.10;;;14.10;99.90;;;;;;5029209;28;20053;-82
2023/09/04 04:03:23;;;;;;;0.20;0.20;;;14.10;99.90;;;;;;5020209;28;20123;-82
2023/09/04 04:05:49;;;;;;;0.20;0.20;;;14.10;99.90;;;;;;5019997;28;20142;-81
2023/09/04 04:08:14;;;;;;;0.10;0.10;;;14.10;99.90;;;;;;5022869;28;20049;-81
2023/09/04 04:10:40;;;;;;;0.10;0.10;;;14.00;99.90;;;;;;5021438;28;20128;-82
2023/09/04 04:13:06;;;;;;;0.20;0.20;;;14.00;99.90;;;;;;5028792;28;20038;-81
2023/09/04 04:15:31;;;;;;;0.20;0.20;;;14.00;99.90;;;;;;5028277;28;20053;-81
2023/09/04 04:17:57;;;;;;;0.20;0.20;;;14.00;99.90;;;;;;5029242;28;20650;-81
2023/09/04 04:20:23;;;;;;;0.20;0.20;;;14.00;99.90;;;;;;5030083;28;20430;-81
2023/09/04 04:22:48;;;;;;;0.10;0.10;;;13.90;99.90;;;;;;5028592;28;20119;-83
2023/09/04 04:25:14;;;;;;;0.20;0.20;;;13.90;99.90;;;;;;5024754;28;20046;-81
2023/09/04 04:27:41;;;;;;;0.10;0.10;;;13.90;99.90;;;;;;5015887;28;20045;-81
2023/09/04 04:30:10;;;;;;;0.20;0.20;;;13.90;99.90;;;;;;5028025;28;20059;-81
2023/09/04 04:32:37;;;;;;;0.10;0.10;;;13.90;99.90;;;;;;5027282;28;20048;-81
2023/09/04 04:35:03;;;;;;;0.15;0.15;;;13.90;99.90;;;;;;5025580;28;20539;-81
2023/09/04 04:37:28;;;;;;;0.15;0.15;;;13.90;99.90;;;;;;5022668;28;20408;-81
2023/09/04 04:39:54;;;;;;;0.10;0.10;;;13.90;99.90;;;;;;5024284;28;20057;-81
2023/09/04 04:42:23;;;;;;;0.10;0.10;;;13.90;99.90;;;;;;5027462;28;20140;-81
2023/09/04 04:44:48;;;;;;;0.20;0.20;;;13.80;99.90;;;;;;5026593;28;20045;-81
2023/09/04 04:47:14;;;;;;;0.10;0.10;;;13.90;99.90;;;;;;5027113;28;20543;-81
2023/09/04 04:49:40;;;;;;;0.15;0.15;;;13.80;99.90;;;;;;5029292;28;20079;-81
2023/09/04 04:52:06;;;;;;;0.10;0.10;;;13.90;99.90;;;;;;5027633;28;20083;-81
2023/09/04 04:54:31;;;;;;;0.20;0.20;;;13.80;99.90;;;;;;5025553;28;21849;-81
2023/09/04 04:56:57;;;;;;;0.20;0.20;;;13.80;99.90;;;;;;5028176;28;20038;-81
2023/09/04 04:59:22;;;;;;;0.20;0.20;;;13.80;99.90;;;;;;5028529;28;20049;-81
2023/09/04 05:01:48;;;;;;;0.20;0.20;;;13.80;99.90;;;;;;5027892;28;20040;-81
2023/09/04 05:04:14;;;;;;;0.20;0.20;;;13.80;99.90;;;;;;5026183;28;20092;-81
2023/09/04 05:06:39;;;;;;;0.20;0.20;;;13.80;99.90;;;;;;5017198;28;20493;-83
2023/09/04 05:09:05;;;;;;;0.20;0.20;;;13.60;99.90;;;;;;5026628;28;20037;-81
2023/09/04 05:11:31;;;;;;;0.20;0.20;;;13.70;99.90;;;;;;5029472;28;20147;-81
2023/09/04 05:13:57;;;;;;;0.13;0.13;;;13.70;99.90;;;;;;5028965;28;20057;-81
2023/09/04 05:16:23;;;;;;;0.15;0.15;;;13.70;99.90;;;;;;5025344;28;20038;-81
2023/09/04 05:18:48;;;;;;;0.10;0.10;;;13.70;99.90;;;;;;5017918;28;20269;-81
2023/09/04 05:21:14;;;;;;;0.20;0.20;;;13.70;99.90;;;;;;5032018;28;20082;-81
2023/09/04 05:23:40;;;;;;;0.20;0.20;;;13.70;99.90;;;;;;5030374;28;20068;-81
2023/09/04 05:26:05;;;;;;;0.20;0.20;;;13.80;99.90;;;;;;5030884;28;20095;-81
2023/09/04 05:28:32;;;;;;;0.15;0.15;;;13.80;99.90;;;;;;5029509;28;20041;-81
2023/09/04 05:31:04;;;;;;;0.10;0.10;;;13.80;99.90;;;;;;5025479;28;20505;-81
2023/09/04 05:33:30;;;;;;;0.10;0.10;;;13.80;99.90;;;;;;5029352;28;20041;-82
2023/09/04 05:35:56;;;;;;;0.20;0.20;;;13.80;99.90;;;;;;5026739;28;20052;-82
2023/09/04 05:38:22;;;;;;;0.20;0.20;;;13.80;99.90;;;;;;5026221;28;20049;-82
2023/09/04 05:40:55;;;;;;;0.10;0.10;;;13.80;99.90;;;;;;5030432;28;20052;-83
2023/09/04 05:43:21;;;;;;;0.20;0.20;;;13.80;99.90;;;;;;5027915;28;20056;-82
2023/09/04 05:45:47;;;;;;;0.20;0.20;;;13.80;99.90;;;;;;5032685;28;20042;-83
2023/09/04 05:48:13;;;;;;;0.20;0.20;;;13.80;99.90;;;;;;5029850;28;20037;-82
2023/09/04 05:50:39;;;;;;;0.20;0.20;;;13.90;99.90;;;;;;5029604;28;20049;-82
2023/09/04 05:53:04;;;;;;;0.20;0.20;;;13.90;99.90;;;;;;5028552;28;20044;-84
2023/09/04 05:55:30;;;;;;;0.15;0.15;;;13.90;99.90;;;;;;5031867;28;20045;-83
2023/09/04 05:57:55;;;;;;;0.20;0.20;;;13.90;99.90;;;;;;5030504;28;20586;-83
2023/09/04 06:00:21;;;;;;;0.10;0.10;;;14.00;99.90;;;;;;5031661;28;20060;-83
2023/09/04 06:02:47;;;;;;;0.20;0.20;;;14.00;99.90;;;;;;5029165;28;20037;-83
2023/09/04 06:05:13;;;;;;;0.17;0.17;;;14.00;99.90;;;;;;5025755;28;20080;-82
2023/09/04 06:07:39;;;;;;;0.10;0.10;;;14.10;99.90;;;;;;5031059;28;20401;-83
2023/09/04 06:10:05;;;;;;;0.20;0.20;;;14.20;99.90;;;;;;5029943;28;20508;-83
2023/09/04 06:12:31;;;;;;;0.20;0.20;;;14.20;99.90;;;;;;5032690;28;20037;-82
2023/09/04 06:14:57;;;;;;;0.20;0.20;;;14.20;99.90;;;;;;5030904;28;20100;-83
2023/09/04 06:17:22;;;;;;;0.10;0.10;;;14.40;99.90;;;;;;5030506;28;20038;-83
2023/09/04 06:19:48;;;;;;;0.10;0.10;;;14.50;99.90;;;;;;5029922;28;20444;-83
2023/09/04 06:22:13;;;;;;;0.20;0.20;;;14.50;99.90;;;;;;5029333;28;20070;-82
2023/09/04 06:24:39;;;;;;;0.20;0.20;;;14.60;99.90;;;;;;5024528;28;20453;-82
2023/09/04 06:27:05;;;;;;;0.10;0.10;;;14.60;99.90;;;;;;5023422;28;20056;-82
2023/09/04 06:29:30;;;;;;;0.13;0.13;;;14.70;99.90;;;;;;5019849;28;20114;-82
2023/09/04 06:31:56;;;;;;;0.10;0.10;;;14.70;99.90;;;;;;5026549;28;20044;-81
2023/09/04 06:34:22;;;;;;;0.20;0.20;;;14.70;99.90;;;;;;5017678;28;20069;-82
2023/09/04 06:36:48;;;;;;;0.10;0.10;;;14.80;99.90;;;;;;5031477;28;20041;-82
2023/09/04 06:39:13;;;;;;;0.15;0.15;;;14.80;99.90;;;;;;5029589;28;20111;-82
2023/09/04 06:41:40;;;;;;;0.20;0.20;;;14.80;99.90;;;;;;5031026;28;20045;-83
2023/09/04 06:44:06;;;;;;;0.20;0.20;;;14.90;99.90;;;;;;5029203;28;20049;-83
2023/09/04 06:46:32;;;;;;;0.20;0.20;;;14.90;99.90;;;;;;5029060;28;20056;-83
2023/09/04 06:48:58;;;;;;;0.20;0.20;;;14.90;99.90;;;;;;5020609;28;20051;-82
2023/09/04 06:51:23;;;;;;;0.20;0.20;;;14.90;99.90;;;;;;5025654;28;20045;-82
2023/09/04 06:53:49;;;;;;;0.20;0.20;;;15.00;99.90;;;;;;5029380;28;20060;-83
2023/09/04 06:56:15;;;;;;;0.20;0.20;;;15.00;99.90;;;;;;5028120;28;20052;-83
2023/09/04 06:58:41;;;;;;;0.17;0.17;;;15.10;99.90;;;;;;5030267;28;20038;-82
2023/09/04 07:01:06;;;;;;;0.17;0.17;;;15.10;99.90;;;;;;5030801;28;20477;-82
2023/09/04 07:03:34;;;;;;;0.20;0.20;;;15.20;99.90;;;;;;5031748;28;20448;-82
2023/09/04 07:05:59;;;;;;;0.20;0.20;;;15.20;99.90;;;;;;5034141;28;20456;-83
2023/09/04 07:08:25;;;;;;;0.20;0.20;;;15.30;99.90;;;;;;5049471;28;20044;-83
2023/09/04 07:10:52;;;;;;;0.20;0.20;;;15.30;99.90;;;;;;5050852;28;20049;-82
2023/09/04 07:13:19;;;;;;;0.13;0.13;;;15.40;99.90;;;;;;5020272;28;20049;-82
2023/09/04 07:15:45;;;;;;;0.10;0.10;;;15.40;99.90;;;;;;5050599;28;20044;-83
2023/09/04 07:18:11;;;;;;;0.10;0.10;;;15.50;99.90;;;;;;5050898;28;20041;-83
2023/09/04 07:20:37;;;;;;;0.20;0.20;;;15.50;99.90;;;;;;5031924;28;20045;-82
2023/09/04 07:23:03;;;;;;;0.15;0.15;;;15.60;99.90;;;;;;5048800;28;20047;-83
2023/09/04 07:25:30;;;;;;;0.20;0.20;;;15.60;99.90;;;;;;5049160;28;20048;-83
2023/09/04 07:27:56;;;;;;;0.20;0.20;;;15.70;99.90;;;;;;5030257;28;20047;-82
2023/09/04 07:30:22;;;;;;;0.10;0.10;;;15.70;99.90;;;;;;5028633;28;20032;-83
2023/09/04 07:32:47;;;;;;;0.47;0.43;;;15.80;99.90;;;;;;5047337;28;20037;-82
2023/09/04 07:35:13;;;;;;;0.20;0.20;;;15.90;99.90;;;;;;5040637;28;20048;-83
2023/09/04 07:37:39;;;;;;;0.20;0.20;;;16.00;99.90;;;;;;5024049;28;20385;-82
2023/09/04 07:40:05;;;;;;;0.20;0.20;;;16.10;99.90;;;;;;5027460;28;20125;-83
2023/09/04 07:42:31;;;;;;;0.20;0.20;;;16.10;99.90;;;;;;5041789;28;20428;-82
2023/09/04 07:44:57;;;;;;;0.20;0.20;;;16.20;99.90;;;;;;5027939;28;20041;-82
2023/09/04 07:47:23;;;;;;;0.20;0.20;;;16.20;99.90;;;;;;5050553;28;20045;-82
2023/09/04 07:49:50;;;;;;;0.20;0.20;;;16.30;99.90;;;;;;5031782;28;20079;-83
2023/09/04 07:52:16;;;;;;;0.20;0.20;;;16.40;99.90;;;;;;5023544;28;20049;-83
2023/09/04 07:54:42;;;;;;;0.20;0.20;;;16.40;99.90;;;;;;5025466;28;20041;-84
2023/09/04 07:57:08;;;;;;;0.10;0.10;;;16.50;99.90;;;;;;5029289;28;20041;-83
2023/09/04 07:59:33;;;;;;;0.10;0.10;;;16.60;99.90;;;;;;5028933;28;20056;-84
2023/09/04 08:01:59;;;;;;;0.20;0.20;;;16.60;99.90;;;;;;5031762;28;20047;-83
2023/09/04 08:04:25;;;;;;;0.10;0.10;;;16.70;99.90;;;;;;5049850;28;20132;-84
2023/09/04 08:06:51;;;;;;;0.10;0.10;;;16.80;99.90;;;;;;5050952;28;20033;-83
2023/09/04 08:09:17;;;;;;;0.20;0.20;;;16.80;99.90;;;;;;5031953;28;20507;-83
2023/09/04 08:11:43;;;;;;;0.13;0.13;;;16.90;99.90;;;;;;5032255;28;20512;-83
2023/09/04 08:14:09;;;;;;;0.20;0.20;;;17.00;99.90;;;;;;5050098;28;20052;-83
2023/09/04 08:16:34;;;;;;;0.20;0.20;;;17.10;99.90;;;;;;5031183;28;20128;-85
2023/09/04 08:19:00;;;;;;;0.20;0.20;;;17.20;99.90;;;;;;5027090;28;20633;-83
2023/09/04 08:21:26;;;;;;;0.20;0.20;;;17.30;99.90;;;;;;5039424;28;20607;-84
2023/09/04 08:23:51;;;;;;;0.20;0.20;;;17.40;99.90;;;;;;5042845;28;20527;-82
2023/09/04 08:26:17;;;;;;;0.20;0.20;;;17.50;99.90;;;;;;5028711;28;20053;-83
2023/09/04 08:28:43;;;;;;;0.20;0.20;;;17.50;99.90;;;;;;5045876;28;20045;-84
2023/09/04 08:31:10;;;;;;;0.20;0.20;;;17.70;99.90;;;;;;5024129;28;20083;-83
2023/09/04 08:33:36;;;;;;;0.20;0.20;;;17.80;99.90;;;;;;5024599;28;20052;-83
2023/09/04 08:36:02;;;;;;;0.20;0.20;;;17.80;99.90;;;;;;5027426;28;20033;-84
2023/09/04 08:38:28;;;;;;;0.20;0.20;;;17.90;99.90;;;;;;5046040;28;20040;-85
2023/09/04 08:41:03;;;;;;;0.10;0.10;;;18.00;99.90;;;;;;5021812;28;20571;-84
2023/09/04 08:43:31;;;;;;;0.20;0.20;;;18.00;99.90;;;;;;5026859;28;20041;-85
2023/09/04 08:46:00;;;;;;;1.00;0.47;;;18.10;99.90;;;;;;5023606;28;20029;-86
2023/09/04 08:48:30;;;;;;;0.20;0.20;;;18.20;99.90;;;;;;5022816;28;20095;-85
2023/09/04 08:50:56;;;;;;;0.20;0.20;;;18.30;99.90;;;;;;5021329;28;20040;-85
2023/09/04 08:53:22;;;;;;;0.20;0.20;;;18.30;99.90;;;;;;5014705;28;20037;-85
2023/09/04 08:55:49;;;;;;;0.17;0.17;;;18.40;99.90;;;;;;5050758;28;20048;-84
2023/09/04 08:58:16;;;;;;;0.20;0.20;;;18.40;99.90;;;;;;5049075;28;20476;-85
2023/09/04 09:00:43;;;;;;;0.20;0.20;;;18.50;99.90;;;;;;5031562;28;20048;-86
2023/09/04 09:03:11;;;;;;;0.20;0.20;;;18.60;99.90;;;;;;5045631;28;20503;-85
2023/09/04 09:05:37;;;;;;;0.20;0.20;;;18.70;99.90;;;;;;5012292;28;20065;-86
2023/09/04 09:08:04;;;;;;;0.20;0.20;;;18.70;99.90;;;;;;5030962;28;20041;-86
2023/09/04 09:10:30;;;;;;;0.20;0.20;;;18.80;99.90;;;;;;5033402;28;20127;-85
2023/09/04 09:12:56;;;;;;;0.20;0.20;;;18.90;99.90;;;;;;5030064;28;20560;-83
2023/09/04 09:15:22;;;;;;;0.20;0.20;;;18.90;99.90;;;;;;5029165;28;20055;-85
2023/09/04 09:17:53;;;;;;;0.20;0.20;;;19.00;99.90;;;;;;5030782;28;20135;-85
2023/09/04 09:20:32;;;;;;;;;;;19.10;99.90;;;;;;5048326;28;20441;-85
2023/09/04 09:23:01;;;;;;;0.20;0.20;;;19.10;99.90;;;;;;5048140;28;19925;-85
2023/09/04 09:25:28;;;;;;;0.20;0.20;;;19.20;99.90;;;;;;5032354;28;20047;-86
2023/09/04 09:28:05;;;;;;;0.20;0.20;;;19.20;99.90;;;;;;5030583;28;20427;-85
2023/09/04 09:30:38;;;;;;;0.20;0.20;;;19.30;99.90;;;;;;5032664;28;20037;-85
2023/09/04 09:33:08;;;;;;;0.20;0.20;;;19.40;99.90;;;;;;5030943;28;20063;-86
2023/09/04 09:35:34;;;;;;;0.20;0.20;;;19.40;99.90;;;;;;5030255;28;20041;-85
2023/09/04 09:38:03;;;;;;;0.20;0.20;;;19.50;99.90;;;;;;5031757;28;20040;-85
2023/09/04 09:40:29;;;;;;;0.20;0.20;;;19.60;99.90;;;;;;5050024;28;20050;-85
2023/09/04 09:42:55;;;;;;;0.20;0.20;;;19.60;99.90;;;;;;5048720;28;20116;-85
2023/09/04 09:45:21;;;;;;;0.20;0.20;;;19.70;99.90;;;;;;5031628;28;20139;-85
2023/09/04 09:47:49;;;;;;;0.20;0.20;;;19.70;99.90;;;;;;5049531;28;20041;-85
2023/09/04 09:50:15;;;;;;;0.20;0.20;;;19.80;99.90;;;;;;5048339;28;20505;-85
2023/09/04 09:52:57;;;;;;;0.20;0.20;;;19.80;99.90;;;;;;5035990;28;20046;-85
2023/09/04 09:55:30;;;;;;;0.10;0.10;;;19.90;99.90;;;;;;5027015;28;20049;-86
2023/09/04 09:58:00;;;;;;;0.20;0.20;;;19.90;99.90;;;;;;5028652;28;20037;-84
2023/09/04 10:00:26;;;;;;;0.20;0.20;;;20.00;99.90;;;;;;5039619;28;20554;-86
2023/09/04 10:02:55;;;;;;;0.20;0.20;;;20.10;99.90;;;;;;5031545;28;20056;-86
2023/09/04 10:05:25;;;;;;;0.10;0.10;;;20.20;99.90;;;;;;5032638;28;20061;-86
2023/09/04 10:08:02;;;;;;;0.20;0.20;;;20.20;99.90;;;;;;5050764;28;20044;-87
2023/09/04 10:10:39;;;;;;;0.20;0.20;;;20.30;99.90;;;;;;5033995;28;20057;-86
2023/09/04 10:13:13;;;;;;;0.20;0.20;;;20.40;99.90;;;;;;5034068;28;20077;-86
2023/09/04 10:15:42;;;;;;;0.20;0.20;;;20.40;99.90;;;;;;5034942;28;20509;-85
2023/09/04 10:18:17;;;;;;;0.20;0.20;;;20.50;99.90;;;;;;5030554;28;20029;-85
2023/09/04 10:20:43;;;;;;;0.20;0.20;;;20.50;99.90;;;;;;5050286;28;20400;-86
2023/09/04 10:23:10;;;;;;;0.20;0.20;;;20.60;99.90;;;;;;5034167;28;20041;-86
2023/09/04 10:25:55;;;;;;;0.20;0.20;;;20.70;99.90;;;;;;5051599;28;20068;-87
2023/09/04 10:28:39;;;;;;;0.20;0.20;;;20.80;99.90;;;;;;5033108;28;20045;-85
2023/09/04 10:31:05;;;;;;;0.20;0.20;;;20.80;99.90;;;;;;5049649;28;20048;-85
2023/09/04 10:33:31;;;;;;;0.20;0.20;;;20.90;99.90;;;;;;5039011;28;20033;-86
2023/09/04 10:35:58;;;;;;;0.20;0.20;;;20.90;99.90;;;;;;5031506;28;20041;-84
2023/09/04 10:38:25;;;;;;;0.10;0.10;;;21.00;99.90;;;;;;5027082;28;20100;-84
2023/09/04 10:40:52;;;;;;;0.20;0.20;;;21.10;99.90;;;;;;5019315;28;20056;-84
2023/09/04 10:43:17;;;;;;;0.20;0.20;;;21.10;99.90;;;;;;5029248;28;20114;-85
2023/09/04 10:46:03;;;;;;;0.20;0.20;;;21.20;99.90;;;;;;5046580;28;20384;-83
2023/09/04 10:48:50;;;;;;;0.20;0.20;;;21.30;99.90;;;;;;5021265;28;20056;-86
2023/09/04 10:51:29;;;;;;;0.20;0.20;;;21.40;99.90;;;;;;5021025;28;20067;-86
2023/09/04 10:53:56;;;;;;;0.20;0.20;;;21.50;99.90;;;;;;5024266;28;20131;-85
2023/09/04 10:56:22;;;;;;;0.20;0.20;;;21.60;99.90;;;;;;5029897;28;20045;-84
2023/09/04 10:59:09;;;;;;;0.20;0.20;;;;;;;;;;5044139;28;20367;-84
2023/09/04 11:01:39;;;;;;;0.20;0.20;;;21.80;99.90;;;;;;5032090;28;20098;-84
2023/09/04 11:04:07;;;;;;;0.20;0.20;;;21.80;99.90;;;;;;5043269;28;20065;-84
2023/09/04 11:06:38;;;;;;;0.20;0.20;;;21.90;99.90;;;;;;5042079;28;20232;-86
2023/09/04 11:09:04;;;;;;;0.20;0.20;;;22.00;99.90;;;;;;5022119;28;20056;-84
2023/09/04 11:11:31;;;;;;;0.20;0.20;;;22.00;99.90;;;;;;5024506;28;20072;-84
2023/09/04 11:14:02;;;;;;;0.20;0.20;;;22.10;99.90;;;;;;5024364;28;20061;-84
2023/09/04 11:16:48;;;;;;;;;;;22.20;99.90;;;;;;5027936;28;20440;-84
2023/09/04 11:19:16;;;;;;;0.45;0.28;;;22.30;99.90;;;;;;5029827;28;19936;-85
2023/09/04 11:21:46;;;;;;;0.17;0.17;;;22.40;99.90;;;;;;5029887;28;20046;-85
2023/09/04 11:24:12;;;;;;;0.20;0.20;;;22.50;99.90;;;;;;5044596;28;20049;-83
2023/09/04 11:26:38;;;;;;;0.20;0.20;;;22.50;99.90;;;;;;5045154;28;20043;-84
2023/09/04 11:29:05;;;;;;;0.20;0.20;;;22.70;99.90;;;;;;5030579;28;20049;-81
2023/09/04 11:31:32;;;;;;;0.20;0.20;;;22.70;99.90;;;;;;5030145;28;20044;-84
2023/09/04 11:33:59;;;;;;;0.20;0.20;;;22.90;99.90;;;;;;5043858;28;20128;-84
2023/09/04 11:36:25;;;;;;;0.20;0.20;;;23.00;99.90;;;;;;5030997;28;20493;-84
2023/09/04 11:39:04;;;;;;;0.20;0.20;;;23.10;99.90;;;;;;5026766;28;20029;-84
2023/09/04 11:41:30;;;;;;;0.10;0.10;;;23.20;99.90;;;;;;5024632;28;20389;-82
2023/09/04 11:43:56;;;;;;;0.20;0.20;;;23.30;99.90;;;;;;5040961;28;20120;-82
2023/09/04 11:46:22;;;;;;;0.20;0.20;;;23.40;99.90;;;;;;5031517;28;20133;-83
2023/09/04 11:48:48;;;;;;;0.20;0.20;;;23.60;99.90;;;;;;5029497;28;20467;-83
2023/09/04 11:51:14;;;;;;;0.20;0.20;;;23.70;99.90;;;;;;5020969;28;20037;-83
2023/09/04 11:53:40;;;;;;;0.20;0.20;;;23.80;99.90;;;;;;5043259;28;20067;-83
2023/09/04 11:56:06;;;;;;;0.20;0.20;;;24.00;99.90;;;;;;5024734;28;20059;-84
2023/09/04 11:58:33;;;;;;;0.20;0.20;;;24.10;99.90;;;;;;5026152;28;20042;-83
2023/09/04 12:00:59;;;;;;;0.20;0.20;;;24.20;99.90;;;;;;5047301;28;20400;-83
2023/09/04 12:03:25;;;;;;;0.20;0.20;;;24.30;99.90;;;;;;5036548;28;20037;-82
2023/09/04 12:05:53;;;;;;;0.20;0.20;;;24.50;99.90;;;;;;5045118;28;20081;-83
2023/09/04 12:08:19;;;;;;;0.20;0.20;;;24.60;99.90;;;;;;5048713;28;20048;-83
2023/09/04 12:10:45;;;;;;;0.20;0.20;;;24.80;99.90;;;;;;5047901;28;20053;-83
2023/09/04 12:13:12;;;;;;;0.20;0.20;;;24.90;99.90;;;;;;5041283;28;20037;-84
2023/09/04 12:15:38;;;;;;;0.20;0.20;;;25.10;99.90;;;;;;5040627;28;20055;-86
2023/09/04 12:18:06;;;;;;;0.20;0.20;;;25.10;99.90;;;;;;5045365;28;20041;-84
2023/09/04 12:20:43;;;;;;;0.20;0.20;;;25.30;99.90;;;;;;5051119;28;20080;-84
2023/09/04 12:23:09;;;;;;;0.20;0.20;;;25.50;99.90;;;;;;5044565;28;20094;-84
2023/09/04 12:25:36;;;;;;;0.20;0.20;;;25.70;99.90;;;;;;5049958;28;20483;-86
2023/09/04 12:28:06;;;;;;;0.20;0.20;;;25.90;99.90;;;;;;5031423;28;20053;-85
2023/09/04 12:30:51;;;;;;;0.20;0.20;;;26.10;99.90;;;;;;5032239;28;20169;-84
2023/09/04 12:33:17;;;;;;;0.20;0.20;;;26.40;99.90;;;;;;5045035;28;20507;-85
2023/09/04 12:35:43;;;;;;;0.20;0.20;;;26.50;99.90;;;;;;5025331;28;20127;-86
2023/09/04 12:38:10;;;;;;;0.20;0.20;;;26.70;99.90;;;;;;5046215;28;20044;-84
2023/09/04 12:40:36;;;;;;;0.20;0.20;;;26.90;99.90;;;;;;5049246;28;20128;-85
2023/09/04 12:43:03;;;;;;;0.20;0.20;;;26.90;99.90;;;;;;5046223;28;20040;-85
2023/09/04 12:45:29;;;;;;;0.20;0.20;;;27.00;99.90;;;;;;5034284;28;20554;-84
2023/09/04 12:47:58;;;;;;;0.20;0.20;;;27.10;99.90;;;;;;5048719;28;20116;-85